sensor_id;sensor_type;location;lat;lon;timestamp;pressure;altitude;pressure_sealevel;temperature;humidity
41632;BME280;37452;51.938;4.624;2023-04-21T00:00:22;77668.84;;;-142.75;100.00
41632;BME280;37452;51.938;4.624;2023-04-21T00:02:47;77684.59;;;-142.75;100.00
41632;BME280;37452;51.938;4.624;2023-04-21T00:05:13;77682.63;;;-142.75;100.00
41632;BME280;37452;51.938;4.624;2023-04-21T00:07:39;77690.50;;;-142.75;100.00
41632;BME280;37452;51.938;4.624;2023-04-21T00:10:06;77670.81;;;-142.75;100.00
41632;BME280;37452;51.938;4.624;2023-04-21T00:12:32;77690.50;;;-142.75;100.00
41632;BME280;37452;51.938;4.624;2023-04-21T00:14:57;77684.59;;;-142.75;100.00
41632;BME280;37452;51.938;4.624;2023-04-21T00:17:22;77662.94;;;-142.75;100.00
41632;BME280;37452;51.938;4.624;2023-04-21T00:19:47;77668.84;;;-142.75;100.00
41632;BME280;37452;51.938;4.624;2023-04-21T00:22:12;77666.88;;;-142.75;100.00
41632;BME280;37452;51.938;4.624;2023-04-21T00:24:39;77668.84;;;-142.75;100.00
41632;BME280;37452;51.938;4.624;2023-04-21T00:27:04;77688.53;;;-142.75;100.00
41632;BME280;37452;51.938;4.624;2023-04-21T00:29:29;77660.97;;;-142.75;100.00
41632;BME280;37452;51.938;4.624;2023-04-21T00:31:55;77653.09;;;-142.75;100.00
41632;BME280;37452;51.938;4.624;2023-04-21T00:34:20;77637.34;;;-142.75;100.00
41632;BME280;37452;51.938;4.624;2023-04-21T00:36:45;77633.41;;;-142.75;100.00
41632;BME280;37452;51.938;4.624;2023-04-21T00:39:10;77623.56;;;-142.75;100.00
41632;BME280;37452;51.938;4.624;2023-04-21T00:41:36;77625.53;;;-142.75;100.00
41632;BME280;37452;51.938;4.624;2023-04-21T00:44:06;77592.06;;;-142.75;100.00
41632;BME280;37452;51.938;4.624;2023-04-21T00:46:32;77601.91;;;-142.75;100.00
41632;BME280;37452;51.938;4.624;2023-04-21T00:48:57;77590.09;;;-142.75;100.00
41632;BME280;37452;51.938;4.624;2023-04-21T00:51:23;77582.22;;;-142.75;100.00
41632;BME280;37452;51.938;4.624;2023-04-21T00:53:48;77586.16;;;-142.75;100.00
41632;BME280;37452;51.938;4.624;2023-04-21T00:56:14;77588.13;;;-142.75;100.00
41632;BME280;37452;51.938;4.624;2023-04-21T00:58:40;77566.47;;;-142.75;100.00
41632;BME280;37452;51.938;4.624;2023-04-21T01:01:06;77572.38;;;-142.75;100.00
41632;BME280;37452;51.938;4.624;2023-04-21T01:03:32;77578.28;;;-142.75;100.00
41632;BME280;37452;51.938;4.624;2023-04-21T01:05:57;77586.16;;;-142.75;100.00
41632;BME280;37452;51.938;4.624;2023-04-21T01:08:22;77562.53;;;-142.75;100.00
41632;BME280;37452;51.938;4.624;2023-04-21T01:10:47;77570.41;;;-142.75;100.00
41632;BME280;37452;51.938;4.624;2023-04-21T01:13:13;77570.41;;;-142.75;100.00
41632;BME280;37452;51.938;4.624;2023-04-21T01:15:38;77554.66;;;-142.75;100.00
41632;BME280;37452;51.938;4.624;2023-04-21T01:18:03;77546.78;;;-142.75;100.00
41632;BME280;37452;51.938;4.624;2023-04-21T01:20:29;77542.84;;;-142.75;100.00
41632;BME280;37452;51.938;4.624;2023-04-21T01:22:54;77534.97;;;-142.75;100.00
41632;BME280;37452;51.938;4.624;2023-04-21T01:25:19;77542.84;;;-142.75;100.00
41632;BME280;37452;51.938;4.624;2023-04-21T01:27:47;77554.66;;;-142.75;100.00
41632;BME280;37452;51.938;4.624;2023-04-21T01:30:12;77550.72;;;-142.75;100.00
41632;BME280;37452;51.938;4.624;2023-04-21T01:32:37;77542.84;;;-142.75;100.00
41632;BME280;37452;51.938;4.624;2023-04-21T01:35:03;77550.72;;;-142.75;100.00
41632;BME280;37452;51.938;4.624;2023-04-21T01:37:30;77554.66;;;-142.75;100.00
41632;BME280;37452;51.938;4.624;2023-04-21T01:39:56;77538.91;;;-142.75;100.00
41632;BME280;37452;51.938;4.624;2023-04-21T01:42:23;77531.03;;;-142.75;100.00
41632;BME280;37452;51.938;4.624;2023-04-21T01:44:49;77534.97;;;-142.75;100.00
41632;BME280;37452;51.938;4.624;2023-04-21T01:47:15;77534.97;;;-142.75;100.00
41632;BME280;37452;51.938;4.624;2023-04-21T01:49:40;77511.34;;;-142.75;100.00
41632;BME280;37452;51.938;4.624;2023-04-21T01:52:05;77523.16;;;-142.75;100.00
41632;BME280;37452;51.938;4.624;2023-04-21T01:54:31;77519.22;;;-142.75;100.00
41632;BME280;37452;51.938;4.624;2023-04-21T01:56:56;77513.31;;;-142.75;100.00
41632;BME280;37452;51.938;4.624;2023-04-21T01:59:22;77540.88;;;-142.75;100.00
41632;BME280;37452;51.938;4.624;2023-04-21T02:01:47;77519.22;;;-142.75;100.00
41632;BME280;37452;51.938;4.624;2023-04-21T02:04:12;77501.50;;;-142.75;100.00
41632;BME280;37452;51.938;4.624;2023-04-21T02:06:37;77507.41;;;-142.75;100.00
41632;BME280;37452;51.938;4.624;2023-04-21T02:09:03;77503.47;;;-142.75;100.00
41632;BME280;37452;51.938;4.624;2023-04-21T02:11:28;77503.47;;;-142.75;100.00
41632;BME280;37452;51.938;4.624;2023-04-21T02:13:53;77531.03;;;-142.75;100.00
41632;BME280;37452;51.938;4.624;2023-04-21T02:16:18;77499.53;;;-142.75;100.00
41632;BME280;37452;51.938;4.624;2023-04-21T02:18:45;77487.72;;;-142.75;100.00
41632;BME280;37452;51.938;4.624;2023-04-21T02:21:10;77479.84;;;-142.75;100.00
41632;BME280;37452;51.938;4.624;2023-04-21T02:23:35;77491.66;;;-142.75;100.00
41632;BME280;37452;51.938;4.624;2023-04-21T02:26:00;77483.78;;;-142.75;100.00
41632;BME280;37452;51.938;4.624;2023-04-21T02:28:25;77487.72;;;-142.75;100.00
41632;BME280;37452;51.938;4.624;2023-04-21T02:30:51;77487.72;;;-142.75;100.00
41632;BME280;37452;51.938;4.624;2023-04-21T02:33:16;77497.56;;;-142.75;100.00
41632;BME280;37452;51.938;4.624;2023-04-21T02:35:41;77475.91;;;-142.75;100.00
41632;BME280;37452;51.938;4.624;2023-04-21T02:38:06;77470.00;;;-142.75;100.00
41632;BME280;37452;51.938;4.624;2023-04-21T02:40:32;77466.03;;;-142.75;100.00
41632;BME280;37452;51.938;4.624;2023-04-21T02:42:58;77464.09;;;-142.75;100.00
41632;BME280;37452;51.938;4.624;2023-04-21T02:45:24;77464.09;;;-142.75;100.00
41632;BME280;37452;51.938;4.624;2023-04-21T02:47:49;77483.78;;;-142.75;100.00
41632;BME280;37452;51.938;4.624;2023-04-21T02:50:14;77456.22;;;-142.75;100.00
41632;BME280;37452;51.938;4.624;2023-04-21T02:52:40;77471.97;;;-142.75;100.00
41632;BME280;37452;51.938;4.624;2023-04-21T02:55:05;77464.09;;;-142.75;100.00
41632;BME280;37452;51.938;4.624;2023-04-21T02:57:30;77444.38;;;-142.75;100.00
41632;BME280;37452;51.938;4.624;2023-04-21T02:59:55;77446.34;;;-142.75;100.00
41632;BME280;37452;51.938;4.624;2023-04-21T03:02:21;77452.25;;;-142.75;100.00
41632;BME280;37452;51.938;4.624;2023-04-21T03:04:46;77450.28;;;-142.75;100.00
41632;BME280;37452;51.938;4.624;2023-04-21T03:07:11;77468.03;;;-142.75;100.00
41632;BME280;37452;51.938;4.624;2023-04-21T03:09:37;77464.09;;;-142.75;100.00
41632;BME280;37452;51.938;4.624;2023-04-21T03:12:02;77450.28;;;-142.75;100.00
41632;BME280;37452;51.938;4.624;2023-04-21T03:14:28;77446.34;;;-142.75;100.00
41632;BME280;37452;51.938;4.624;2023-04-21T03:16:53;77440.44;;;-142.75;100.00
41632;BME280;37452;51.938;4.624;2023-04-21T03:19:18;77448.34;;;-142.75;100.00
41632;BME280;37452;51.938;4.624;2023-04-21T03:21:43;77448.34;;;-142.75;100.00
41632;BME280;37452;51.938;4.624;2023-04-21T03:24:08;77442.41;;;-142.75;100.00
41632;BME280;37452;51.938;4.624;2023-04-21T03:26:34;77444.38;;;-142.75;100.00
41632;BME280;37452;51.938;4.624;2023-04-21T03:28:59;77450.28;;;-142.75;100.00
41632;BME280;37452;51.938;4.624;2023-04-21T03:31:24;77444.38;;;-142.75;100.00
41632;BME280;37452;51.938;4.624;2023-04-21T03:33:50;77460.13;;;-142.75;100.00
41632;BME280;37452;51.938;4.624;2023-04-21T03:36:15;77452.25;;;-142.75;100.00
41632;BME280;37452;51.938;4.624;2023-04-21T03:38:40;77436.50;;;-142.75;100.00
41632;BME280;37452;51.938;4.624;2023-04-21T03:41:05;77428.63;;;-142.75;100.00
41632;BME280;37452;51.938;4.624;2023-04-21T03:43:30;77418.78;;;-142.75;100.00
41632;BME280;37452;51.938;4.624;2023-04-21T03:45:56;77406.97;;;-142.75;100.00
41632;BME280;37452;51.938;4.624;2023-04-21T03:48:21;77406.97;;;-142.75;100.00
41632;BME280;37452;51.938;4.624;2023-04-21T03:50:46;77416.81;;;-142.75;100.00
41632;BME280;37452;51.938;4.624;2023-04-21T03:53:11;77397.13;;;-142.75;100.00
41632;BME280;37452;51.938;4.624;2023-04-21T03:55:36;77399.09;;;-142.75;100.00
41632;BME280;37452;51.938;4.624;2023-04-21T03:58:02;77393.19;;;-142.75;100.00
41632;BME280;37452;51.938;4.624;2023-04-21T04:00:27;77383.34;;;-142.75;100.00
41632;BME280;37452;51.938;4.624;2023-04-21T04:02:52;77387.28;;;-142.75;100.00
41632;BME280;37452;51.938;4.624;2023-04-21T04:05:17;77387.28;;;-142.75;100.00
41632;BME280;37452;51.938;4.624;2023-04-21T04:07:43;77389.25;;;-142.75;100.00
41632;BME280;37452;51.938;4.624;2023-04-21T04:10:09;77408.94;;;-142.75;100.00
41632;BME280;37452;51.938;4.624;2023-04-21T04:12:35;77395.16;;;-142.75;100.00
41632;BME280;37452;51.938;4.624;2023-04-21T04:15:00;77385.31;;;-142.75;100.00
41632;BME280;37452;51.938;4.624;2023-04-21T04:17:26;77385.31;;;-142.75;100.00
41632;BME280;37452;51.938;4.624;2023-04-21T04:19:51;77399.09;;;-142.75;100.00
41632;BME280;37452;51.938;4.624;2023-04-21T04:22:17;77375.47;;;-142.75;100.00
41632;BME280;37452;51.938;4.624;2023-04-21T04:24:42;77393.19;;;-142.75;100.00
41632;BME280;37452;51.938;4.624;2023-04-21T04:27:09;77399.09;;;-142.75;100.00
41632;BME280;37452;51.938;4.624;2023-04-21T04:29:34;77393.19;;;-142.75;100.00
41632;BME280;37452;51.938;4.624;2023-04-21T04:32:00;77383.34;;;-142.75;100.00
41632;BME280;37452;51.938;4.624;2023-04-21T04:34:28;77399.09;;;-142.75;100.00
41632;BME280;37452;51.938;4.624;2023-04-21T04:36:53;77391.22;;;-142.75;100.00
41632;BME280;37452;51.938;4.624;2023-04-21T04:39:18;77387.28;;;-142.75;100.00
41632;BME280;37452;51.938;4.624;2023-04-21T04:41:43;77383.34;;;-142.75;100.00
41632;BME280;37452;51.938;4.624;2023-04-21T04:44:08;77383.34;;;-142.75;100.00
41632;BME280;37452;51.938;4.624;2023-04-21T04:46:35;77389.25;;;-142.75;100.00
41632;BME280;37452;51.938;4.624;2023-04-21T04:49:00;77373.50;;;-142.75;100.00
41632;BME280;37452;51.938;4.624;2023-04-21T04:51:25;77355.78;;;-142.75;100.00
41632;BME280;37452;51.938;4.624;2023-04-21T04:53:51;77357.75;;;-142.75;100.00
41632;BME280;37452;51.938;4.624;2023-04-21T04:56:16;77373.50;;;-142.75;100.00
41632;BME280;37452;51.938;4.624;2023-04-21T04:58:41;77385.31;;;-142.75;100.00
41632;BME280;37452;51.938;4.624;2023-04-21T05:01:10;77357.75;;;-142.75;100.00
41632;BME280;37452;51.938;4.624;2023-04-21T05:03:36;77357.75;;;-142.75;100.00
41632;BME280;37452;51.938;4.624;2023-04-21T05:06:02;77357.75;;;-142.75;100.00
41632;BME280;37452;51.938;4.624;2023-04-21T05:08:27;77365.63;;;-142.75;100.00
41632;BME280;37452;51.938;4.624;2023-04-21T05:10:52;77363.66;;;-142.75;100.00
41632;BME280;37452;51.938;4.624;2023-04-21T05:13:17;77349.88;;;-142.75;100.00
41632;BME280;37452;51.938;4.624;2023-04-21T05:15:42;77361.69;;;-142.75;100.00
41632;BME280;37452;51.938;4.624;2023-04-21T05:18:08;77355.78;;;-142.75;100.00
41632;BME280;37452;51.938;4.624;2023-04-21T05:20:33;77373.50;;;-142.75;100.00
41632;BME280;37452;51.938;4.624;2023-04-21T05:22:58;77349.88;;;-142.75;100.00
41632;BME280;37452;51.938;4.624;2023-04-21T05:25:23;77357.75;;;-142.75;100.00
41632;BME280;37452;51.938;4.624;2023-04-21T05:27:48;77320.34;;;-142.75;100.00
41632;BME280;37452;51.938;4.624;2023-04-21T05:30:14;77330.19;;;-142.75;100.00
41632;BME280;37452;51.938;4.624;2023-04-21T05:32:39;77353.81;;;-142.75;100.00
41632;BME280;37452;51.938;4.624;2023-04-21T05:35:04;77342.00;;;-142.75;100.00
41632;BME280;37452;51.938;4.624;2023-04-21T05:37:30;77338.06;;;-142.75;100.00
41632;BME280;37452;51.938;4.624;2023-04-21T05:39:55;77334.13;;;-142.75;100.00
41632;BME280;37452;51.938;4.624;2023-04-21T05:42:20;77338.06;;;-142.75;100.00
41632;BME280;37452;51.938;4.624;2023-04-21T05:44:46;77359.72;;;-142.75;100.00
41632;BME280;37452;51.938;4.624;2023-04-21T05:47:11;77338.06;;;-142.75;100.00
41632;BME280;37452;51.938;4.624;2023-04-21T05:49:36;77334.13;;;-142.75;100.00
41632;BME280;37452;51.938;4.624;2023-04-21T05:52:01;77353.81;;;-142.75;100.00
41632;BME280;37452;51.938;4.624;2023-04-21T05:54:26;77357.75;;;-142.75;100.00
41632;BME280;37452;51.938;4.624;2023-04-21T05:56:52;77353.81;;;-142.75;100.00
41632;BME280;37452;51.938;4.624;2023-04-21T05:59:17;77342.00;;;-142.75;100.00
41632;BME280;37452;51.938;4.624;2023-04-21T06:01:42;77357.75;;;-142.75;100.00
41632;BME280;37452;51.938;4.624;2023-04-21T06:04:08;77357.75;;;-142.75;100.00
41632;BME280;37452;51.938;4.624;2023-04-21T06:06:33;77353.81;;;-142.75;100.00
41632;BME280;37452;51.938;4.624;2023-04-21T06:08:58;77349.88;;;-142.75;100.00
41632;BME280;37452;51.938;4.624;2023-04-21T06:11:23;77347.91;;;-142.75;100.00
41632;BME280;37452;51.938;4.624;2023-04-21T06:13:49;77349.88;;;-142.75;100.00
41632;BME280;37452;51.938;4.624;2023-04-21T06:16:14;77332.16;;;-142.75;100.00
41632;BME280;37452;51.938;4.624;2023-04-21T06:18:39;77330.19;;;-142.75;100.00
41632;BME280;37452;51.938;4.624;2023-04-21T06:21:05;77330.19;;;-142.75;100.00
41632;BME280;37452;51.938;4.624;2023-04-21T06:23:30;77328.22;;;-142.75;100.00
41632;BME280;37452;51.938;4.624;2023-04-21T06:25:59;77334.13;;;-142.75;100.00
41632;BME280;37452;51.938;4.624;2023-04-21T06:28:25;77338.06;;;-142.75;100.00
41632;BME280;37452;51.938;4.624;2023-04-21T06:30:50;77334.13;;;-142.75;100.00
41632;BME280;37452;51.938;4.624;2023-04-21T06:33:15;77322.31;;;-142.75;100.00
41632;BME280;37452;51.938;4.624;2023-04-21T06:35:41;77330.19;;;-142.75;100.00
41632;BME280;37452;51.938;4.624;2023-04-21T06:38:07;77322.31;;;-142.75;100.00
41632;BME280;37452;51.938;4.624;2023-04-21T06:40:32;77328.22;;;-142.75;100.00
41632;BME280;37452;51.938;4.624;2023-04-21T06:42:58;77310.50;;;-142.75;100.00
41632;BME280;37452;51.938;4.624;2023-04-21T06:45:23;77322.31;;;-142.75;100.00
41632;BME280;37452;51.938;4.624;2023-04-21T06:47:48;77306.56;;;-142.75;100.00
41632;BME280;37452;51.938;4.624;2023-04-21T06:50:13;77306.56;;;-142.75;100.00
41632;BME280;37452;51.938;4.624;2023-04-21T06:52:38;77300.66;;;-142.75;100.00
41632;BME280;37452;51.938;4.624;2023-04-21T06:55:04;77312.47;;;-142.75;100.00
41632;BME280;37452;51.938;4.624;2023-04-21T06:57:30;77294.75;;;-142.75;100.00
41632;BME280;37452;51.938;4.624;2023-04-21T06:59:55;77292.78;;;-142.75;100.00
41632;BME280;37452;51.938;4.624;2023-04-21T07:02:20;77318.38;;;-142.75;100.00
41632;BME280;37452;51.938;4.624;2023-04-21T07:04:45;77310.50;;;-142.75;100.00
41632;BME280;37452;51.938;4.624;2023-04-21T07:07:10;77300.66;;;-142.75;100.00
41632;BME280;37452;51.938;4.624;2023-04-21T07:09:37;77296.72;;;-142.75;100.00
41632;BME280;37452;51.938;4.624;2023-04-21T07:12:02;77294.75;;;-142.75;100.00
41632;BME280;37452;51.938;4.624;2023-04-21T07:14:28;77302.63;;;-142.75;100.00
41632;BME280;37452;51.938;4.624;2023-04-21T07:16:53;77294.75;;;-142.75;100.00
41632;BME280;37452;51.938;4.624;2023-04-21T07:19:21;77298.69;;;-142.75;100.00
41632;BME280;37452;51.938;4.624;2023-04-21T07:21:46;77282.94;;;-142.75;100.00
41632;BME280;37452;51.938;4.624;2023-04-21T07:24:11;77286.88;;;-142.75;100.00
41632;BME280;37452;51.938;4.624;2023-04-21T07:26:36;77269.16;;;-142.75;100.00
41632;BME280;37452;51.938;4.624;2023-04-21T07:29:01;77263.25;;;-142.75;100.00
41632;BME280;37452;51.938;4.624;2023-04-21T07:31:26;77261.28;;;-142.75;100.00
41632;BME280;37452;51.938;4.624;2023-04-21T07:33:52;77257.34;;;-142.75;100.00
41632;BME280;37452;51.938;4.624;2023-04-21T07:36:17;77219.94;;;-142.75;100.00
41632;BME280;37452;51.938;4.624;2023-04-21T07:38:42;77204.19;;;-142.75;100.00
41632;BME280;37452;51.938;4.624;2023-04-21T07:41:11;77231.75;;;-142.75;100.00
41632;BME280;37452;51.938;4.624;2023-04-21T07:43:37;77204.19;;;-142.75;100.00
41632;BME280;37452;51.938;4.624;2023-04-21T07:46:02;77204.19;;;-142.75;100.00
41632;BME280;37452;51.938;4.624;2023-04-21T07:48:28;77210.09;;;-142.75;100.00
41632;BME280;37452;51.938;4.624;2023-04-21T07:50:53;77192.38;;;-142.75;100.00
41632;BME280;37452;51.938;4.624;2023-04-21T07:53:18;77172.69;;;-142.75;100.00
41632;BME280;37452;51.938;4.624;2023-04-21T07:55:43;77188.44;;;-142.75;100.00
41632;BME280;37452;51.938;4.624;2023-04-21T07:58:08;77190.41;;;-142.75;100.00
41632;BME280;37452;51.938;4.624;2023-04-21T08:00:34;77188.44;;;-142.75;100.00
41632;BME280;37452;51.938;4.624;2023-04-21T08:02:59;77154.97;;;-142.75;100.00
41632;BME280;37452;51.938;4.624;2023-04-21T08:05:25;77139.22;;;-142.75;100.00
41632;BME280;37452;51.938;4.624;2023-04-21T08:07:50;77137.25;;;-142.75;100.00
41632;BME280;37452;51.938;4.624;2023-04-21T08:10:15;77176.63;;;-142.75;100.00
41632;BME280;37452;51.938;4.624;2023-04-21T08:12:41;77182.53;;;-142.75;100.00
41632;BME280;37452;51.938;4.624;2023-04-21T08:15:06;77147.09;;;-142.75;100.00
41632;BME280;37452;51.938;4.624;2023-04-21T08:17:32;77082.13;;;-142.75;100.00
41632;BME280;37452;51.938;4.624;2023-04-21T08:19:57;77107.72;;;-142.75;100.00
41632;BME280;37452;51.938;4.624;2023-04-21T08:22:23;77145.13;;;-142.75;100.00
41632;BME280;37452;51.938;4.624;2023-04-21T08:24:48;77101.81;;;-142.75;100.00
41632;BME280;37452;51.938;4.624;2023-04-21T08:27:13;77078.19;;;-142.75;100.00
41632;BME280;37452;51.938;4.624;2023-04-21T08:29:38;77133.31;;;-142.75;100.00
41632;BME280;37452;51.938;4.624;2023-04-21T08:32:04;77153.00;;;-142.75;100.00
41632;BME280;37452;51.938;4.624;2023-04-21T08:34:29;77137.25;;;-142.75;100.00
41632;BME280;37452;51.938;4.624;2023-04-21T08:36:54;77054.56;;;-142.75;100.00
41632;BME280;37452;51.938;4.624;2023-04-21T08:39:19;77038.81;;;-142.75;100.00
41632;BME280;37452;51.938;4.624;2023-04-21T08:41:45;77101.81;;;-142.75;100.00
41632;BME280;37452;51.938;4.624;2023-04-21T08:44:11;77129.38;;;-142.75;100.00
41632;BME280;37452;51.938;4.624;2023-04-21T08:46:36;77046.69;;;-142.75;100.00
41632;BME280;37452;51.938;4.624;2023-04-21T08:49:02;77062.44;;;-142.75;100.00
41632;BME280;37452;51.938;4.624;2023-04-21T08:51:28;77091.97;;;-142.75;100.00
41632;BME280;37452;51.938;4.624;2023-04-21T08:53:54;77070.31;;;-142.75;100.00
41632;BME280;37452;51.938;4.624;2023-04-21T08:56:20;77068.34;;;-142.75;100.00
41632;BME280;37452;51.938;4.624;2023-04-21T08:58:45;77091.97;;;-142.75;100.00
41632;BME280;37452;51.938;4.624;2023-04-21T09:01:10;77072.28;;;-142.75;100.00
41632;BME280;37452;51.938;4.624;2023-04-21T09:03:36;77060.47;;;-142.75;100.00
41632;BME280;37452;51.938;4.624;2023-04-21T09:06:05;77042.75;;;-142.75;100.00
41632;BME280;37452;51.938;4.624;2023-04-21T09:08:31;76962.03;;;-142.75;100.00
41632;BME280;37452;51.938;4.624;2023-04-21T09:10:57;76979.75;;;-142.75;100.00
41632;BME280;37452;51.938;4.624;2023-04-21T09:13:35;77017.16;;;-142.75;100.00
41632;BME280;37452;51.938;4.624;2023-04-21T09:16:02;77090.00;;;-142.75;100.00
41632;BME280;37452;51.938;4.624;2023-04-21T09:18:28;77093.94;;;-142.75;100.00
41632;BME280;37452;51.938;4.624;2023-04-21T09:21:09;77068.34;;;-142.75;100.00
41632;BME280;37452;51.938;4.624;2023-04-21T09:23:41;77097.88;;;-142.75;100.00
41632;BME280;37452;51.938;4.624;2023-04-21T09:26:07;77109.69;;;-142.75;100.00
41632;BME280;37452;51.938;4.624;2023-04-21T09:28:32;77088.03;;;-142.75;100.00
41632;BME280;37452;51.938;4.624;2023-04-21T09:30:58;77038.81;;;-142.75;100.00
41632;BME280;37452;51.938;4.624;2023-04-21T09:33:23;77034.88;;;-142.75;100.00
41632;BME280;37452;51.938;4.624;2023-04-21T09:35:48;77028.97;;;-142.75;100.00
41632;BME280;37452;51.938;4.624;2023-04-21T09:38:14;77066.38;;;-142.75;100.00
41632;BME280;37452;51.938;4.624;2023-04-21T09:40:39;77084.09;;;-142.75;100.00
41632;BME280;37452;51.938;4.624;2023-04-21T09:43:05;77056.53;;;-142.75;100.00
41632;BME280;37452;51.938;4.624;2023-04-21T09:45:30;77040.78;;;-142.75;100.00
41632;BME280;37452;51.938;4.624;2023-04-21T09:47:58;77056.53;;;-142.75;100.00
41632;BME280;37452;51.938;4.624;2023-04-21T09:50:25;77007.31;;;-142.75;100.00
41632;BME280;37452;51.938;4.624;2023-04-21T09:52:51;77011.25;;;-142.75;100.00
41632;BME280;37452;51.938;4.624;2023-04-21T09:55:17;77027.00;;;-142.75;100.00
41632;BME280;37452;51.938;4.624;2023-04-21T09:57:42;77068.34;;;-142.75;100.00
41632;BME280;37452;51.938;4.624;2023-04-21T10:00:09;77074.25;;;-142.75;100.00
41632;BME280;37452;51.938;4.624;2023-04-21T10:02:42;77091.97;;;-142.75;100.00
41632;BME280;37452;51.938;4.624;2023-04-21T10:05:08;77044.72;;;-142.75;100.00
41632;BME280;37452;51.938;4.624;2023-04-21T10:07:34;76993.53;;;-142.75;100.00
41632;BME280;37452;51.938;4.624;2023-04-21T10:09:59;76930.53;;;-142.75;100.00
41632;BME280;37452;51.938;4.624;2023-04-21T10:12:25;76873.44;;;-142.75;100.00
41632;BME280;37452;51.938;4.624;2023-04-21T10:14:54;76849.81;;;-142.75;100.00
41632;BME280;37452;51.938;4.624;2023-04-21T10:17:24;76889.19;;;-142.75;100.00
41632;BME280;37452;51.938;4.624;2023-04-21T10:19:53;76891.16;;;-142.75;100.00
41632;BME280;37452;51.938;4.624;2023-04-21T10:22:31;76904.94;;;-142.75;100.00
41632;BME280;37452;51.938;4.624;2023-04-21T10:24:57;76920.69;;;-142.75;100.00
41632;BME280;37452;51.938;4.624;2023-04-21T10:30:00;76759.28;;;-142.75;100.00
41632;BME280;37452;51.938;4.624;2023-04-21T10:32:39;76749.44;;;-142.75;100.00
41632;BME280;37452;51.938;4.624;2023-04-21T10:35:07;76784.88;;;-142.75;100.00
41632;BME280;37452;51.938;4.624;2023-04-21T10:37:32;76788.81;;;-142.75;100.00
41632;BME280;37452;51.938;4.624;2023-04-21T10:39:58;76759.28;;;-142.75;100.00
41632;BME280;37452;51.938;4.624;2023-04-21T10:42:24;76802.56;;;-142.75;100.00
41632;BME280;37452;51.938;4.624;2023-04-21T10:47:24;76735.66;;;-142.75;100.00
41632;BME280;37452;51.938;4.624;2023-04-21T10:49:50;76761.25;;;-142.75;100.00
41632;BME280;37452;51.938;4.624;2023-04-21T10:52:15;76725.81;;;-142.75;100.00
41632;BME280;37452;51.938;4.624;2023-04-21T10:55:03;76682.50;;;-142.75;100.00
41632;BME280;37452;51.938;4.624;2023-04-21T10:57:30;76676.59;;;-142.75;100.00
41632;BME280;37452;51.938;4.624;2023-04-21T11:05:36;76645.09;;;-142.75;100.00
41632;BME280;37452;51.938;4.624;2023-04-21T11:08:06;76611.63;;;-142.75;100.00
41632;BME280;37452;51.938;4.624;2023-04-21T11:10:41;76605.72;;;-142.75;100.00
41632;BME280;37452;51.938;4.624;2023-04-21T11:13:07;76540.75;;;-142.75;100.00
41632;BME280;37452;51.938;4.624;2023-04-21T11:15:32;76586.03;;;-142.75;100.00
41632;BME280;37452;51.938;4.624;2023-04-21T11:17:57;76641.16;;;-142.75;100.00
41632;BME280;37452;51.938;4.624;2023-04-21T11:20:23;76690.38;;;-142.75;100.00
41632;BME280;37452;51.938;4.624;2023-04-21T11:22:50;76643.13;;;-142.75;100.00
41632;BME280;37452;51.938;4.624;2023-04-21T11:25:16;76584.06;;;-142.75;100.00
41632;BME280;37452;51.938;4.624;2023-04-21T11:27:51;76554.53;;;-142.75;100.00
41632;BME280;37452;51.938;4.624;2023-04-21T11:30:18;76515.19;;;-142.75;100.00
41632;BME280;37452;51.938;4.624;2023-04-21T11:32:44;76544.69;;;-142.75;100.00
41632;BME280;37452;51.938;4.624;2023-04-21T11:35:09;76593.91;;;-142.75;100.00
41632;BME280;37452;51.938;4.624;2023-04-21T11:37:35;76633.28;;;-142.75;100.00
41632;BME280;37452;51.938;4.624;2023-04-21T11:40:00;76568.31;;;-142.75;100.00
41632;BME280;37452;51.938;4.624;2023-04-21T11:42:27;76544.69;;;-142.75;100.00
41632;BME280;37452;51.938;4.624;2023-04-21T11:44:53;76534.84;;;-142.75;100.00
41632;BME280;37452;51.938;4.624;2023-04-21T11:47:19;76538.78;;;-142.75;100.00
41632;BME280;37452;51.938;4.624;2023-04-21T11:49:58;76586.03;;;-142.75;100.00
41632;BME280;37452;51.938;4.624;2023-04-21T11:54:57;76580.13;;;-142.75;100.00
41632;BME280;37452;51.938;4.624;2023-04-21T11:57:23;76528.97;;;-142.75;100.00
41632;BME280;37452;51.938;4.624;2023-04-21T11:59:49;76452.19;;;-142.75;100.00
41632;BME280;37452;51.938;4.624;2023-04-21T12:02:24;76416.75;;;-142.75;100.00
41632;BME280;37452;51.938;4.624;2023-04-21T12:05:00;76393.13;;;-142.75;97.58
41632;BME280;37452;51.938;4.624;2023-04-21T12:07:28;76371.47;;;-142.75;98.79
41632;BME280;37452;51.938;4.624;2023-04-21T12:09:53;76402.97;;;-142.75;91.28
41632;BME280;37452;51.938;4.624;2023-04-21T12:12:18;76369.50;;;-142.75;92.21
41632;BME280;37452;51.938;4.624;2023-04-21T12:14:45;76310.47;;;-142.75;100.00
41632;BME280;37452;51.938;4.624;2023-04-21T12:17:10;76330.16;;;-142.75;100.00
41632;BME280;37452;51.938;4.624;2023-04-21T12:19:37;76278.97;;;-142.75;100.00
41632;BME280;37452;51.938;4.624;2023-04-21T12:22:15;76280.94;;;-142.75;100.00
41632;BME280;37452;51.938;4.624;2023-04-21T12:24:42;76306.53;;;-142.75;98.98
41632;BME280;37452;51.938;4.624;2023-04-21T12:27:07;76351.81;;;-142.75;99.42
41632;BME280;37452;51.938;4.624;2023-04-21T12:29:33;76363.59;;;-142.75;100.00
41632;BME280;37452;51.938;4.624;2023-04-21T12:32:03;76328.19;;;-142.75;100.00
41632;BME280;37452;51.938;4.624;2023-04-21T12:34:28;76389.19;;;-142.75;100.00
41632;BME280;37452;51.938;4.624;2023-04-21T12:36:53;76326.22;;;-142.75;98.96